createdAt,value
2023-04-02T00:01:22.820Z,88.76
2023-04-02T00:03:54.075Z,88.00
2023-04-02T00:06:34.844Z,88.17
2023-04-02T00:09:17.291Z,87.91
2023-04-02T00:11:49.579Z,88.61
2023-04-02T00:14:27.243Z,88.33
2023-04-02T00:16:55.988Z,88.96
2023-04-02T00:19:35.546Z,88.90
2023-04-02T00:22:06.870Z,89.27
2023-04-02T00:24:33.954Z,89.72
2023-04-02T00:27:01.026Z,89.07
2023-04-02T00:29:28.185Z,89.23
2023-04-02T00:31:58.588Z,89.30
2023-04-02T00:34:37.256Z,89.26
2023-04-02T00:37:05.218Z,89.36
2023-04-02T00:39:44.411Z,90.07
2023-04-02T00:42:13.330Z,90.05
2023-04-02T00:44:45.405Z,89.88
2023-04-02T00:47:20.313Z,89.98
2023-04-02T00:49:53.710Z,89.94
2023-04-02T00:52:23.864Z,89.40
2023-04-02T00:55:06.626Z,90.04
2023-04-02T00:57:34.058Z,90.05
2023-04-02T01:00:12.156Z,90.24
2023-04-02T01:02:40.819Z,89.80
2023-04-02T01:05:17.640Z,89.84
2023-04-02T01:08:01.408Z,90.25
2023-04-02T01:10:49.473Z,90.67
2023-04-02T01:13:31.220Z,90.61
2023-04-02T01:16:12.704Z,90.75
2023-04-02T01:19:02.555Z,90.42
2023-04-02T01:21:46.279Z,90.03
2023-04-02T01:24:14.605Z,90.92
2023-04-02T01:26:53.612Z,90.50
2023-04-02T01:29:21.316Z,90.47
2023-04-02T01:31:50.256Z,90.24
2023-04-02T01:34:25.153Z,90.18
2023-04-02T01:37:24.346Z,90.46
2023-04-02T01:40:03.568Z,90.17
2023-04-02T01:42:41.621Z,90.36
2023-04-02T01:45:15.323Z,90.27
2023-04-02T01:47:44.094Z,91.04
2023-04-02T01:50:20.264Z,91.01
2023-04-02T01:52:54.576Z,90.47
2023-04-02T01:55:38.950Z,90.96
2023-04-02T01:58:06.198Z,91.14
2023-04-02T02:00:36.802Z,89.98
2023-04-02T02:03:06.306Z,90.53
2023-04-02T02:05:33.648Z,90.45
2023-04-02T02:08:01.336Z,90.35
2023-04-02T02:10:34.952Z,91.02
2023-04-02T02:13:01.971Z,90.97
2023-04-02T02:15:29.052Z,90.81
2023-04-02T02:18:00.957Z,90.41
2023-04-02T02:20:29.055Z,90.44
2023-04-02T02:22:56.689Z,90.44
2023-04-02T02:25:30.914Z,90.34
2023-04-02T02:28:17.724Z,90.47
2023-04-02T02:30:49.398Z,90.56
2023-04-02T02:33:41.716Z,90.55
2023-04-02T02:36:33.486Z,91.06
2023-04-02T02:39:17.795Z,90.55
2023-04-02T02:41:57.666Z,90.38
2023-04-02T02:44:33.287Z,89.66
2023-04-02T02:47:16.529Z,90.35
2023-04-02T02:49:47.602Z,90.25
2023-04-02T02:52:19.336Z,90.20
2023-04-02T02:55:10.298Z,90.18
2023-04-02T02:57:55.154Z,90.01
2023-04-02T03:00:25.273Z,89.50
2023-04-02T03:02:56.535Z,90.14
2023-04-02T03:05:28.512Z,90.25
2023-04-02T03:08:02.505Z,90.15
2023-04-02T03:10:43.413Z,89.92
2023-04-02T03:13:35.356Z,90.03
2023-04-02T03:16:22.459Z,89.83
2023-04-02T03:19:05.846Z,89.64
2023-04-02T03:21:34.081Z,89.03
2023-04-02T03:24:12.482Z,89.35
2023-04-02T03:26:51.753Z,89.48
2023-04-02T03:29:25.070Z,88.97
2023-04-02T03:32:00.721Z,89.29
2023-04-02T03:34:40.480Z,88.81
2023-04-02T03:37:19.652Z,88.87
2023-04-02T03:40:01.796Z,88.27
2023-04-02T03:42:42.007Z,88.34
2023-04-02T03:45:21.836Z,88.68
2023-04-02T03:47:55.399Z,88.59
2023-04-02T03:50:35.781Z,88.24
2023-04-02T03:53:04.210Z,88.01
2023-04-02T03:55:36.233Z,87.82
2023-04-02T03:58:24.429Z,87.84
2023-04-02T04:01:12.313Z,88.07
2023-04-02T04:03:44.660Z,87.77
2023-04-02T04:06:28.979Z,87.58
2023-04-02T04:09:06.277Z,88.03
2023-04-02T04:11:36.601Z,87.55
2023-04-02T04:14:19.378Z,87.49
2023-04-02T04:17:13.906Z,87.01
2023-04-02T04:19:49.518Z,87.28
2023-04-02T04:22:31.913Z,87.41
2023-04-02T04:25:21.016Z,86.78
2023-04-02T04:27:56.945Z,87.36
2023-04-02T04:30:36.495Z,86.56
2023-04-02T04:33:15.327Z,86.61
2023-04-02T04:35:51.454Z,87.22
2023-04-02T04:38:39.708Z,87.23
2023-04-02T04:41:16.618Z,86.63
2023-04-02T04:44:35.701Z,86.65
2023-04-02T04:47:08.180Z,86.94
2023-04-02T04:49:58.749Z,87.02
2023-04-02T04:52:40.712Z,85.82
2023-04-02T04:55:31.059Z,86.26
2023-04-02T04:58:33.688Z,86.55
2023-04-02T05:01:19.187Z,86.73
2023-04-02T05:03:52.643Z,86.59
2023-04-02T05:06:38.959Z,86.47
2023-04-02T05:09:24.797Z,86.37
2023-04-02T05:12:06.680Z,85.58
2023-04-02T05:15:01.915Z,86.04
2023-04-02T05:18:14.737Z,85.11
2023-04-02T05:20:50.697Z,85.55
2023-04-02T05:23:30.953Z,85.46
2023-04-02T05:26:09.427Z,85.31
2023-04-02T05:28:54.336Z,85.62
2023-04-02T05:31:27.984Z,85.39
2023-04-02T05:33:56.765Z,84.48
2023-04-02T05:36:29.586Z,85.05
2023-04-02T05:38:59.811Z,84.51
2023-04-02T05:41:47.616Z,85.40
2023-04-02T05:44:30.110Z,84.96
2023-04-02T05:47:01.972Z,85.29
2023-04-02T05:49:39.351Z,85.61
2023-04-02T05:52:16.223Z,84.92
2023-04-02T05:54:51.078Z,84.52
2023-04-02T05:57:42.721Z,84.49
2023-04-02T06:00:18.359Z,84.90
2023-04-02T06:02:54.832Z,85.27
2023-04-02T06:05:26.351Z,85.06
2023-04-02T06:08:17.488Z,85.39
2023-04-02T06:11:17.798Z,85.50
2023-04-02T06:13:45.602Z,85.41
2023-04-02T06:16:16.080Z,85.47
2023-04-02T06:18:44.805Z,85.87
2023-04-02T06:21:17.381Z,85.55
2023-04-02T06:24:01.507Z,86.16
2023-04-02T06:26:35.267Z,85.77
2023-04-02T06:29:11.072Z,85.20
2023-04-02T06:31:45.066Z,84.54
2023-04-02T06:34:20.356Z,85.11
2023-04-02T06:37:03.902Z,83.28
2023-04-02T06:39:33.303Z,83.78
2023-04-02T06:42:11.234Z,83.98
2023-04-02T06:44:57.270Z,83.15
2023-04-02T06:47:48.660Z,83.73
2023-04-02T06:50:33.422Z,83.52
2023-04-02T06:53:09.663Z,82.13
2023-04-02T06:56:19.002Z,81.90
2023-04-02T06:58:46.166Z,82.05
2023-04-02T07:01:18.256Z,81.29
2023-04-02T07:03:45.431Z,81.64
2023-04-02T07:06:27.130Z,81.02
2023-04-02T07:08:57.813Z,79.91
2023-04-02T07:11:26.198Z,80.58
2023-04-02T07:13:56.159Z,79.70
2023-04-02T07:16:26.707Z,79.76
2023-04-02T07:18:56.118Z,80.11
2023-04-02T07:21:25.142Z,78.11
2023-04-02T07:23:52.615Z,78.84
2023-04-02T07:26:22.817Z,79.23
2023-04-02T07:28:50.415Z,78.74
2023-04-02T07:31:19.575Z,79.13
2023-04-02T07:33:46.996Z,79.10
2023-04-02T07:36:20.441Z,78.91
2023-04-02T07:38:47.844Z,78.23
2023-04-02T07:41:15.913Z,78.31
2023-04-02T07:43:43.266Z,77.84
2023-04-02T07:46:11.663Z,77.50
2023-04-02T07:48:39.137Z,77.99
2023-04-02T07:51:06.165Z,75.94
2023-04-02T07:53:35.728Z,77.64
2023-04-02T07:56:03.724Z,77.60
2023-04-02T07:58:32.110Z,77.22
2023-04-02T08:01:00.029Z,77.92
2023-04-02T08:03:27.171Z,77.45
2023-04-02T08:05:55.858Z,77.89
2023-04-02T08:08:24.226Z,77.68
2023-04-02T08:10:51.715Z,77.54
2023-04-02T08:13:19.298Z,77.49
2023-04-02T08:15:46.082Z,78.31
2023-04-02T08:18:12.929Z,77.22
2023-04-02T08:20:40.012Z,76.09
2023-04-02T08:23:15.489Z,75.18
2023-04-02T08:25:42.512Z,75.76
2023-04-02T08:28:09.383Z,75.53
2023-04-02T08:30:37.206Z,76.08
2023-04-02T08:33:04.590Z,75.89
2023-04-02T08:35:31.466Z,76.03
2023-04-02T08:37:58.677Z,76.80
2023-04-02T08:40:36.557Z,76.04
2023-04-02T08:43:15.420Z,75.55
2023-04-02T08:46:20.892Z,75.61
2023-04-02T08:48:55.432Z,75.25
2023-04-02T08:51:35.673Z,75.99
2023-04-02T08:54:13.580Z,76.41
2023-04-02T08:56:52.407Z,75.65
2023-04-02T08:59:27.140Z,74.89
2023-04-02T09:02:24.011Z,75.03
2023-04-02T09:04:51.524Z,75.16
2023-04-02T09:07:18.762Z,74.82
2023-04-02T09:09:48.828Z,74.33
2023-04-02T09:12:21.027Z,74.35
2023-04-02T09:15:14.817Z,74.41
2023-04-02T09:17:53.169Z,74.25
2023-04-02T09:20:26.539Z,74.38
2023-04-02T09:22:55.466Z,74.26
2023-04-02T09:25:29.735Z,73.26
2023-04-02T09:28:00.760Z,73.66
2023-04-02T09:30:42.245Z,73.71
2023-04-02T09:33:09.342Z,72.06
2023-04-02T09:35:54.116Z,73.31
2023-04-02T09:38:30.598Z,72.69
2023-04-02T09:40:59.520Z,72.02
2023-04-02T09:43:29.010Z,70.50
2023-04-02T09:46:04.079Z,72.17
2023-04-02T09:48:34.499Z,70.92
2023-04-02T09:51:10.512Z,72.32
2023-04-02T09:53:42.747Z,72.23
2023-04-02T09:56:21.802Z,73.14
2023-04-02T09:59:15.179Z,73.20
2023-04-02T10:01:58.878Z,73.55
2023-04-02T10:04:47.242Z,73.74
2023-04-02T10:07:43.726Z,73.91
2023-04-02T10:10:23.959Z,73.26
2023-04-02T10:13:03.597Z,73.25
2023-04-02T10:15:38.218Z,72.91
2023-04-02T10:18:16.760Z,72.59
2023-04-02T10:20:51.265Z,73.19
2023-04-02T10:23:19.629Z,72.73
2023-04-02T10:26:20.310Z,72.07
2023-04-02T10:29:03.519Z,73.02
2023-04-02T10:31:59.505Z,73.30
2023-04-02T10:34:46.738Z,72.97
2023-04-02T10:37:52.862Z,73.41
2023-04-02T10:40:48.401Z,73.76
2023-04-02T10:43:26.805Z,74.31
2023-04-02T10:46:18.096Z,74.06
2023-04-02T10:49:00.885Z,73.88
2023-04-02T10:51:39.952Z,73.85
2023-04-02T10:54:44.619Z,74.24
2023-04-02T10:57:34.372Z,73.45
2023-04-02T11:00:16.889Z,73.51
2023-04-02T11:02:46.940Z,74.56
2023-04-02T11:05:18.505Z,74.10
2023-04-02T11:07:53.624Z,73.36
2023-04-02T11:10:21.469Z,72.75
2023-04-02T11:13:24.119Z,73.07
2023-04-02T11:15:51.612Z,72.84
2023-04-02T11:18:25.317Z,72.84
2023-04-02T11:21:01.111Z,73.54
2023-04-02T11:23:36.315Z,73.48
2023-04-02T11:26:33.947Z,74.00
2023-04-02T11:29:21.196Z,73.66
2023-04-02T11:31:49.757Z,73.13
2023-04-02T11:34:56.347Z,73.21
2023-04-02T11:37:35.280Z,73.08
2023-04-02T11:40:11.483Z,73.45
2023-04-02T11:42:42.940Z,73.33
2023-04-02T11:45:22.742Z,73.96
2023-04-02T11:48:15.504Z,73.85
2023-04-02T11:50:46.642Z,74.06
2023-04-02T11:53:23.751Z,73.62
2023-04-02T11:56:10.244Z,74.16
2023-04-02T11:58:55.686Z,73.52
2023-04-02T12:02:01.162Z,73.81
2023-04-02T12:04:52.361Z,74.16
2023-04-02T12:07:39.069Z,74.46
2023-04-02T12:10:18.732Z,74.42
2023-04-02T12:12:45.486Z,74.36
2023-04-02T12:15:36.684Z,75.76
2023-04-02T12:18:11.393Z,75.50
2023-04-02T12:20:38.178Z,74.56
2023-04-02T12:23:05.389Z,75.14
2023-04-02T12:25:40.313Z,75.23
2023-04-02T12:28:10.043Z,74.54
2023-04-02T12:30:38.365Z,73.85
2023-04-02T12:33:20.915Z,74.34
2023-04-02T12:35:50.624Z,74.52
2023-04-02T12:38:24.352Z,73.69
2023-04-02T12:41:01.926Z,74.74
2023-04-02T12:43:34.511Z,74.97
2023-04-02T12:46:05.344Z,75.00
2023-04-02T12:48:34.857Z,73.66
2023-04-02T12:51:03.054Z,74.60
2023-04-02T12:53:35.061Z,74.39
2023-04-02T12:56:02.899Z,74.78
2023-04-02T12:58:34.962Z,74.43
2023-04-02T13:01:23.672Z,74.94
2023-04-02T13:04:06.216Z,74.17
2023-04-02T13:06:34.220Z,75.29
2023-04-02T13:09:03.174Z,75.38
2023-04-02T13:11:42.489Z,74.40
2023-04-02T13:14:21.236Z,74.53
2023-04-02T13:16:48.279Z,74.84
2023-04-02T13:19:44.606Z,73.96
2023-04-02T13:22:33.550Z,73.34
2023-04-02T13:25:00.949Z,74.59
2023-04-02T13:27:27.702Z,74.38
2023-04-02T13:29:54.414Z,74.86
2023-04-02T13:32:22.268Z,74.65
2023-04-02T13:34:49.036Z,75.15
2023-04-02T13:37:16.052Z,74.94
2023-04-02T13:39:42.807Z,75.29
2023-04-02T13:42:11.704Z,74.71
2023-04-02T13:44:38.457Z,74.71
2023-04-02T13:47:05.397Z,73.58
2023-04-02T13:49:32.678Z,73.86
2023-04-02T13:52:03.215Z,75.35
2023-04-02T13:54:52.998Z,75.23
2023-04-02T13:57:19.752Z,75.63
2023-04-02T13:59:46.752Z,76.30
2023-04-02T14:02:20.431Z,75.81
2023-04-02T14:04:56.668Z,75.45
2023-04-02T14:07:42.342Z,75.74
2023-04-02T14:10:17.018Z,75.66
2023-04-02T14:13:19.420Z,75.18
2023-04-02T14:15:59.790Z,75.63
2023-04-02T14:18:36.762Z,75.54
2023-04-02T14:21:36.428Z,75.17
2023-04-02T14:24:27.180Z,75.33
2023-04-02T14:27:19.083Z,75.45
2023-04-02T14:29:56.629Z,76.12
2023-04-02T14:32:30.937Z,75.43
2023-04-02T14:35:13.157Z,75.67
2023-04-02T14:37:49.312Z,75.03
2023-04-02T14:40:57.140Z,75.21
2023-04-02T14:43:33.215Z,75.06
2023-04-02T14:46:06.439Z,74.77
2023-04-02T14:48:48.852Z,76.18
2023-04-02T14:51:45.044Z,75.69
2023-04-02T14:54:33.334Z,75.81
2023-04-02T14:57:23.631Z,75.80
2023-04-02T15:00:10.783Z,76.01
2023-04-02T15:02:45.812Z,76.03
2023-04-02T15:05:21.285Z,75.99
2023-04-02T15:07:57.739Z,75.48
2023-04-02T15:10:33.692Z,76.23
2023-04-02T15:13:06.593Z,76.15
2023-04-02T15:15:46.729Z,75.11
2023-04-02T15:18:16.268Z,75.35
2023-04-02T15:21:16.609Z,75.37
2023-04-02T15:24:11.043Z,75.39
2023-04-02T15:27:24.437Z,75.32
2023-04-02T15:30:16.088Z,75.57
2023-04-02T15:32:43.938Z,75.84
2023-04-02T15:35:38.802Z,75.78
2023-04-02T15:38:17.709Z,75.59
2023-04-02T15:41:23.564Z,75.71
2023-04-02T15:43:56.655Z,76.00
2023-04-02T15:46:41.333Z,76.19
2023-04-02T15:49:20.759Z,76.38
2023-04-02T15:51:58.471Z,76.59
2023-04-02T15:54:34.291Z,76.44
2023-04-02T15:57:10.103Z,77.04
2023-04-02T15:59:52.352Z,76.76
2023-04-02T16:03:02.700Z,76.81
2023-04-02T16:05:32.451Z,76.92
2023-04-02T16:08:02.422Z,75.70
2023-04-02T16:10:41.773Z,75.98
2023-04-02T16:13:23.888Z,76.54
2023-04-02T16:16:02.389Z,76.67
2023-04-02T16:18:41.314Z,76.03
2023-04-02T16:21:14.393Z,76.26
2023-04-02T16:23:42.133Z,75.97
2023-04-02T16:26:27.103Z,75.84
2023-04-02T16:29:15.522Z,76.77
2023-04-02T16:32:02.465Z,77.28
2023-04-02T16:35:07.694Z,77.43
2023-04-02T16:38:20.787Z,77.25
2023-04-02T16:41:08.254Z,77.13
2023-04-02T16:43:43.999Z,77.26
2023-04-02T16:46:39.862Z,77.20
2023-04-02T16:49:38.459Z,77.63
2023-04-02T16:52:32.104Z,77.26
2023-04-02T16:54:58.907Z,76.68
2023-04-02T16:57:48.772Z,76.99
2023-04-02T17:00:30.949Z,76.84
2023-04-02T17:03:06.784Z,77.22
2023-04-02T17:05:45.924Z,77.63
2023-04-02T17:08:37.861Z,77.95
2023-04-02T17:11:12.572Z,76.95
2023-04-02T17:13:42.276Z,76.19
2023-04-02T17:16:12.026Z,76.69
2023-04-02T17:18:42.483Z,76.88
2023-04-02T17:21:12.942Z,76.80
2023-04-02T17:23:56.012Z,76.55
2023-04-02T17:26:28.365Z,76.57
2023-04-02T17:28:58.521Z,77.26
2023-04-02T17:31:30.747Z,76.74
2023-04-02T17:33:57.861Z,76.63
2023-04-02T17:36:32.761Z,76.90
2023-04-02T17:39:05.337Z,76.47
2023-04-02T17:42:04.379Z,76.94
2023-04-02T17:44:57.341Z,76.87
2023-04-02T17:47:38.333Z,76.55
2023-04-02T17:50:17.291Z,77.18
2023-04-02T17:53:19.077Z,76.85
2023-04-02T17:56:06.951Z,76.92
2023-04-02T17:58:48.876Z,77.27
2023-04-02T18:01:25.096Z,77.29
2023-04-02T18:04:07.452Z,77.75
2023-04-02T18:06:56.186Z,77.57
2023-04-02T18:09:35.249Z,77.73
2023-04-02T18:12:26.767Z,77.12
2023-04-02T18:14:59.200Z,76.95
2023-04-02T18:17:59.116Z,76.58
2023-04-02T18:20:39.625Z,77.24
2023-04-02T18:23:24.971Z,77.33
2023-04-02T18:26:00.507Z,78.15
2023-04-02T18:28:42.433Z,78.20
2023-04-02T18:31:14.960Z,78.91
2023-04-02T18:33:50.144Z,78.44
2023-04-02T18:36:46.067Z,78.75
2023-04-02T18:39:20.713Z,78.32
2023-04-02T18:42:13.083Z,78.46
2023-04-02T18:44:51.808Z,79.44
2023-04-02T18:47:28.172Z,79.04
2023-04-02T18:50:33.739Z,78.88
2023-04-02T18:53:16.815Z,78.26
2023-04-02T18:55:55.617Z,78.15
2023-04-02T18:58:34.092Z,78.45
2023-04-02T19:01:04.530Z,78.42
2023-04-02T19:03:32.724Z,78.54
2023-04-02T19:06:28.701Z,78.71
2023-04-02T19:09:08.333Z,78.62
2023-04-02T19:11:36.020Z,79.59
2023-04-02T19:14:16.553Z,79.59
2023-04-02T19:17:21.512Z,79.83
2023-04-02T19:20:17.059Z,79.87
2023-04-02T19:23:08.961Z,80.27
2023-04-02T19:25:57.978Z,80.74
2023-04-02T19:28:31.190Z,80.49
2023-04-02T19:31:36.157Z,80.08
2023-04-02T19:34:21.567Z,79.83
2023-04-02T19:36:56.333Z,79.40
2023-04-02T19:39:39.636Z,79.81
2023-04-02T19:42:25.033Z,79.40
2023-04-02T19:44:53.515Z,79.51
2023-04-02T19:47:20.724Z,79.45
2023-04-02T19:49:47.603Z,78.83
2023-04-02T19:52:14.567Z,79.31
2023-04-02T19:54:41.607Z,78.90
2023-04-02T19:57:13.895Z,79.10
2023-04-02T19:59:40.840Z,79.13
2023-04-02T20:02:10.330Z,78.50
2023-04-02T20:04:37.299Z,79.18
2023-04-02T20:07:04.092Z,79.09
2023-04-02T20:09:30.952Z,78.99
2023-04-02T20:11:57.648Z,78.67
2023-04-02T20:14:24.410Z,79.17
2023-04-02T20:16:52.206Z,78.64
2023-04-02T20:19:19.591Z,79.10
2023-04-02T20:21:46.518Z,77.90
2023-04-02T20:24:13.374Z,78.35
2023-04-02T20:26:40.086Z,78.34
2023-04-02T20:29:07.264Z,78.51
2023-04-02T20:31:34.251Z,78.49
2023-04-02T20:34:02.583Z,77.83
2023-04-02T20:36:29.848Z,78.26
2023-04-02T20:38:57.512Z,77.67
2023-04-02T20:41:24.290Z,77.72
2023-04-02T20:43:51.322Z,77.84
2023-04-02T20:46:18.208Z,77.09
2023-04-02T20:48:45.222Z,77.94
2023-04-02T20:51:15.243Z,77.50
2023-04-02T20:53:42.900Z,76.55
2023-04-02T20:56:13.305Z,76.42
2023-04-02T20:58:40.604Z,75.84
2023-04-02T21:01:11.927Z,76.34
2023-04-02T21:03:40.065Z,75.98
2023-04-02T21:06:22.098Z,75.74
2023-04-02T21:08:49.655Z,76.17
2023-04-02T21:11:16.998Z,76.85
2023-04-02T21:13:44.985Z,76.08
2023-04-02T21:16:19.153Z,75.52
2023-04-02T21:18:47.376Z,75.87
2023-04-02T21:21:15.488Z,75.42
2023-04-02T21:23:43.822Z,75.89
2023-04-02T21:26:14.952Z,75.11
2023-04-02T21:28:42.808Z,76.07
2023-04-02T21:31:19.414Z,74.85
2023-04-02T21:33:50.171Z,74.42
2023-04-02T21:36:25.912Z,75.26
2023-04-02T21:38:57.872Z,75.41
2023-04-02T21:41:35.896Z,74.85
2023-04-02T21:44:05.126Z,74.94
2023-04-02T21:46:35.125Z,75.39
2023-04-02T21:49:02.383Z,75.79
2023-04-02T21:51:32.977Z,75.53
2023-04-02T21:54:00.435Z,75.15
2023-04-02T21:56:33.097Z,74.89
2023-04-02T21:59:02.097Z,75.37
2023-04-02T22:01:31.939Z,74.91
2023-04-02T22:04:02.736Z,75.23
2023-04-02T22:06:37.575Z,75.26
2023-04-02T22:09:08.259Z,75.14
2023-04-02T22:11:39.502Z,74.69
2023-04-02T22:14:08.287Z,74.52
2023-04-02T22:16:42.827Z,73.91
2023-04-02T22:20:16.400Z,74.08
2023-04-02T22:22:43.641Z,74.23
2023-04-02T22:25:10.316Z,73.79
2023-04-02T22:27:37.070Z,73.33
2023-04-02T22:30:04.413Z,73.94
2023-04-02T22:32:31.127Z,73.33
2023-04-02T22:34:57.815Z,72.58
2023-04-02T22:37:24.581Z,73.54
2023-04-02T22:39:51.496Z,73.08
2023-04-02T22:42:18.158Z,73.41
2023-04-02T22:44:45.083Z,72.35
2023-04-02T22:47:11.812Z,72.90
2023-04-02T22:49:38.559Z,73.25
2023-04-02T22:52:06.889Z,73.08
2023-04-02T22:54:33.615Z,73.36
2023-04-02T22:57:00.469Z,73.38
2023-04-02T22:59:27.174Z,73.56
2023-04-02T23:01:53.991Z,73.00
2023-04-02T23:04:20.749Z,72.01
2023-04-02T23:06:47.933Z,71.89
2023-04-02T23:09:14.681Z,71.88
2023-04-02T23:11:41.400Z,72.15
2023-04-02T23:14:08.201Z,72.33
2023-04-02T23:16:35.070Z,71.72
2023-04-02T23:19:01.900Z,71.98
2023-04-02T23:21:28.795Z,72.33
2023-04-02T23:23:55.880Z,72.04
2023-04-02T23:26:27.095Z,71.29
2023-04-02T23:28:54.184Z,71.77
2023-04-02T23:31:23.295Z,71.62
2023-04-02T23:33:51.673Z,72.33
2023-04-02T23:36:23.124Z,71.73
2023-04-02T23:38:55.241Z,71.29
2023-04-02T23:41:24.159Z,71.45
2023-04-02T23:43:51.059Z,71.57
2023-04-02T23:46:17.810Z,71.47
2023-04-02T23:48:46.019Z,72.07
2023-04-02T23:51:13.919Z,72.40
2023-04-02T23:53:40.869Z,71.29
2023-04-02T23:56:07.807Z,71.21
2023-04-02T23:58:34.795Z,71.80
